Smolensk, Russia
Current Conditions -  °F | °C
As of 5:00 PM on Wednesday 26 Nov 2014 (Local Time) from UMII Reporting Station
Haze Haze  
Wind Chill: 15°   Ceiling: 300
Heat Index: 21°   Visibility: 1.9mi
Dew Point: 19°   Wind: 4mph
Humidity: 93%   Direction: 140°SE
Pressure: 30.39"   Gusts: NA
Location:  54.78°N, 32.04°E
Report Text: UMII 261400Z 14002MPS 3100 BR OVC003 M06/M07 Q1029 R23/CLRD//TEMPO 2000 RMK QBB090
Loading
Personal Weather Stations






























Interactive Weather Map New forecast layout! Learn more

10-Day Weather Forecast

Advertisements
Track Severe Weather on mobile